sensor_id;sensor_type;location;lat;lon;timestamp;P1;durP1;ratioP1;P2;durP2;ratioP2
11066;SDS011;29763;50.904;5.530;2022-09-03T00:01:36;2.50;;;2.20;;
11066;SDS011;29763;50.904;5.530;2022-09-03T00:04:11;2.38;;;2.17;;
11066;SDS011;29763;50.904;5.530;2022-09-03T00:06:48;4.47;;;2.40;;
11066;SDS011;29763;50.904;5.530;2022-09-03T00:09:28;4.43;;;2.30;;
11066;SDS011;29763;50.904;5.530;2022-09-03T00:12:12;5.38;;;2.38;;
11066;SDS011;29763;50.904;5.530;2022-09-03T00:27:36;3.28;;;2.33;;
11066;SDS011;29763;50.904;5.530;2022-09-03T00:30:19;3.33;;;2.25;;
11066;SDS011;29763;50.904;5.530;2022-09-03T00:36:18;2.70;;;2.15;;
11066;SDS011;29763;50.904;5.530;2022-09-03T00:39:16;3.65;;;2.08;;
11066;SDS011;29763;50.904;5.530;2022-09-03T00:45:31;3.45;;;2.10;;
11066;SDS011;29763;50.904;5.530;2022-09-03T01:03:58;2.72;;;2.10;;
11066;SDS011;29763;50.904;5.530;2022-09-03T01:15:11;2.50;;;1.90;;
11066;SDS011;29763;50.904;5.530;2022-09-03T01:34:22;2.33;;;2.13;;
11066;SDS011;29763;50.904;5.530;2022-09-03T01:39:41;2.00;;;1.80;;
11066;SDS011;29763;50.904;5.530;2022-09-03T01:47:48;3.65;;;1.90;;
11066;SDS011;29763;50.904;5.530;2022-09-03T01:53:18;3.25;;;1.98;;
11066;SDS011;29763;50.904;5.530;2022-09-03T01:59:19;2.53;;;1.80;;
11066;SDS011;29763;50.904;5.530;2022-09-03T02:02:01;2.10;;;1.88;;
11066;SDS011;29763;50.904;5.530;2022-09-03T02:04:36;3.28;;;2.00;;
11066;SDS011;29763;50.904;5.530;2022-09-03T02:07:08;4.05;;;2.00;;
11066;SDS011;29763;50.904;5.530;2022-09-03T02:09:40;2.10;;;2.00;;
11066;SDS011;29763;50.904;5.530;2022-09-03T02:12:10;2.90;;;1.75;;
11066;SDS011;29763;50.904;5.530;2022-09-03T02:14:55;2.92;;;2.00;;
11066;SDS011;29763;50.904;5.530;2022-09-03T02:17:41;3.20;;;1.77;;
11066;SDS011;29763;50.904;5.530;2022-09-03T02:20:14;3.28;;;1.92;;
11066;SDS011;29763;50.904;5.530;2022-09-03T02:22:46;2.97;;;1.90;;
11066;SDS011;29763;50.904;5.530;2022-09-03T02:25:35;3.63;;;1.90;;
11066;SDS011;29763;50.904;5.530;2022-09-03T02:28:16;3.40;;;1.90;;
11066;SDS011;29763;50.904;5.530;2022-09-03T02:30:51;3.60;;;1.92;;
11066;SDS011;29763;50.904;5.530;2022-09-03T02:33:21;2.75;;;1.90;;
11066;SDS011;29763;50.904;5.530;2022-09-03T02:35:47;3.33;;;1.80;;
11066;SDS011;29763;50.904;5.530;2022-09-03T02:38:31;2.25;;;1.90;;
11066;SDS011;29763;50.904;5.530;2022-09-03T02:40:57;2.40;;;2.00;;
11066;SDS011;29763;50.904;5.530;2022-09-03T02:43:31;2.28;;;1.92;;
11066;SDS011;29763;50.904;5.530;2022-09-03T02:46:00;2.30;;;2.10;;
11066;SDS011;29763;50.904;5.530;2022-09-03T02:48:33;2.00;;;1.90;;
11066;SDS011;29763;50.904;5.530;2022-09-03T02:50:59;2.80;;;1.92;;
11066;SDS011;29763;50.904;5.530;2022-09-03T02:53:28;4.05;;;1.92;;
11066;SDS011;29763;50.904;5.530;2022-09-03T02:56:00;2.00;;;1.90;;
11066;SDS011;29763;50.904;5.530;2022-09-03T02:58:29;2.15;;;1.83;;
11066;SDS011;29763;50.904;5.530;2022-09-03T03:00:58;3.45;;;1.90;;
11066;SDS011;29763;50.904;5.530;2022-09-03T03:03:24;2.00;;;1.90;;
11066;SDS011;29763;50.904;5.530;2022-09-03T03:05:54;2.33;;;1.95;;
11066;SDS011;29763;50.904;5.530;2022-09-03T03:08:23;3.03;;;2.20;;
11066;SDS011;29763;50.904;5.530;2022-09-03T03:10:52;3.38;;;1.85;;
11066;SDS011;29763;50.904;5.530;2022-09-03T03:13:21;3.65;;;1.77;;
11066;SDS011;29763;50.904;5.530;2022-09-03T03:15:48;2.08;;;1.88;;
11066;SDS011;29763;50.904;5.530;2022-09-03T03:18:17;2.15;;;1.95;;
11066;SDS011;29763;50.904;5.530;2022-09-03T03:20:52;2.50;;;2.08;;
11066;SDS011;29763;50.904;5.530;2022-09-03T03:23:19;4.35;;;2.13;;
11066;SDS011;29763;50.904;5.530;2022-09-03T03:25:45;3.13;;;2.10;;
11066;SDS011;29763;50.904;5.530;2022-09-03T03:28:15;3.35;;;2.08;;
11066;SDS011;29763;50.904;5.530;2022-09-03T03:30:44;3.00;;;2.00;;
11066;SDS011;29763;50.904;5.530;2022-09-03T03:33:13;3.70;;;1.90;;
11066;SDS011;29763;50.904;5.530;2022-09-03T03:35:39;2.53;;;1.98;;
11066;SDS011;29763;50.904;5.530;2022-09-03T03:38:06;4.07;;;2.20;;
11066;SDS011;29763;50.904;5.530;2022-09-03T03:40:32;5.32;;;2.40;;
11066;SDS011;29763;50.904;5.530;2022-09-03T03:43:01;3.08;;;2.00;;
11066;SDS011;29763;50.904;5.530;2022-09-03T03:45:27;2.85;;;1.60;;
11066;SDS011;29763;50.904;5.530;2022-09-03T03:47:56;3.50;;;2.00;;
11066;SDS011;29763;50.904;5.530;2022-09-03T03:50:23;3.90;;;2.10;;
11066;SDS011;29763;50.904;5.530;2022-09-03T03:52:49;4.00;;;1.85;;
11066;SDS011;29763;50.904;5.530;2022-09-03T03:55:15;4.47;;;1.90;;
11066;SDS011;29763;50.904;5.530;2022-09-03T03:57:41;1.80;;;1.70;;
11066;SDS011;29763;50.904;5.530;2022-09-03T04:00:07;3.33;;;1.85;;
11066;SDS011;29763;50.904;5.530;2022-09-03T04:02:37;2.92;;;1.95;;
11066;SDS011;29763;50.904;5.530;2022-09-03T04:05:03;4.50;;;2.30;;
11066;SDS011;29763;50.904;5.530;2022-09-03T04:07:29;3.28;;;2.00;;
11066;SDS011;29763;50.904;5.530;2022-09-03T04:09:54;3.58;;;2.05;;
11066;SDS011;29763;50.904;5.530;2022-09-03T04:12:20;3.05;;;2.10;;
11066;SDS011;29763;50.904;5.530;2022-09-03T04:14:46;4.47;;;2.35;;
11066;SDS011;29763;50.904;5.530;2022-09-03T04:17:12;5.00;;;2.40;;
11066;SDS011;29763;50.904;5.530;2022-09-03T04:19:39;4.28;;;2.60;;
11066;SDS011;29763;50.904;5.530;2022-09-03T04:22:04;4.57;;;2.60;;
11066;SDS011;29763;50.904;5.530;2022-09-03T04:24:30;3.45;;;2.50;;
11066;SDS011;29763;50.904;5.530;2022-09-03T04:26:56;3.25;;;2.28;;
11066;SDS011;29763;50.904;5.530;2022-09-03T04:29:22;3.72;;;2.72;;
11066;SDS011;29763;50.904;5.530;2022-09-03T04:31:48;2.83;;;2.35;;
11066;SDS011;29763;50.904;5.530;2022-09-03T04:34:32;3.20;;;2.22;;
11066;SDS011;29763;50.904;5.530;2022-09-03T04:36:58;5.78;;;2.40;;
11066;SDS011;29763;50.904;5.530;2022-09-03T04:39:24;3.22;;;2.20;;
11066;SDS011;29763;50.904;5.530;2022-09-03T04:41:50;5.15;;;2.38;;
11066;SDS011;29763;50.904;5.530;2022-09-03T04:44:17;3.58;;;2.28;;
11066;SDS011;29763;50.904;5.530;2022-09-03T04:46:42;3.20;;;2.25;;
11066;SDS011;29763;50.904;5.530;2022-09-03T04:49:11;2.50;;;1.92;;
11066;SDS011;29763;50.904;5.530;2022-09-03T04:51:37;3.85;;;2.15;;
11066;SDS011;29763;50.904;5.530;2022-09-03T04:54:03;2.30;;;2.00;;
11066;SDS011;29763;50.904;5.530;2022-09-03T04:56:30;3.55;;;2.20;;
11066;SDS011;29763;50.904;5.530;2022-09-03T04:58:58;3.30;;;1.95;;
11066;SDS011;29763;50.904;5.530;2022-09-03T05:01:27;2.30;;;2.10;;
11066;SDS011;29763;50.904;5.530;2022-09-03T05:03:55;3.38;;;2.15;;
11066;SDS011;29763;50.904;5.530;2022-09-03T05:06:21;2.92;;;2.25;;
11066;SDS011;29763;50.904;5.530;2022-09-03T05:08:49;2.67;;;1.95;;
11066;SDS011;29763;50.904;5.530;2022-09-03T05:11:17;4.72;;;1.95;;
11066;SDS011;29763;50.904;5.530;2022-09-03T05:13:46;4.53;;;2.00;;
11066;SDS011;29763;50.904;5.530;2022-09-03T05:16:15;2.63;;;2.10;;
11066;SDS011;29763;50.904;5.530;2022-09-03T05:18:42;2.42;;;2.10;;
11066;SDS011;29763;50.904;5.530;2022-09-03T05:21:10;3.00;;;2.15;;
11066;SDS011;29763;50.904;5.530;2022-09-03T05:23:45;3.60;;;2.10;;
11066;SDS011;29763;50.904;5.530;2022-09-03T05:26:17;2.38;;;2.03;;
11066;SDS011;29763;50.904;5.530;2022-09-03T05:28:44;3.65;;;2.00;;
11066;SDS011;29763;50.904;5.530;2022-09-03T05:31:11;3.03;;;2.00;;
11066;SDS011;29763;50.904;5.530;2022-09-03T05:33:51;3.00;;;2.00;;
11066;SDS011;29763;50.904;5.530;2022-09-03T05:36:23;2.30;;;1.90;;
11066;SDS011;29763;50.904;5.530;2022-09-03T05:38:50;2.70;;;2.05;;
11066;SDS011;29763;50.904;5.530;2022-09-03T05:41:20;3.15;;;2.20;;
11066;SDS011;29763;50.904;5.530;2022-09-03T05:43:48;4.45;;;2.33;;
11066;SDS011;29763;50.904;5.530;2022-09-03T05:46:23;4.07;;;2.13;;
11066;SDS011;29763;50.904;5.530;2022-09-03T05:48:59;1.80;;;1.70;;
11066;SDS011;29763;50.904;5.530;2022-09-03T05:51:26;2.17;;;1.98;;
11066;SDS011;29763;50.904;5.530;2022-09-03T05:53:52;2.72;;;1.98;;
11066;SDS011;29763;50.904;5.530;2022-09-03T05:56:20;3.65;;;1.95;;
11066;SDS011;29763;50.904;5.530;2022-09-03T05:58:57;2.80;;;2.13;;
11066;SDS011;29763;50.904;5.530;2022-09-03T06:01:29;3.13;;;2.10;;
11066;SDS011;29763;50.904;5.530;2022-09-03T06:04:09;4.85;;;2.00;;
11066;SDS011;29763;50.904;5.530;2022-09-03T06:06:37;5.88;;;2.03;;
11066;SDS011;29763;50.904;5.530;2022-09-03T06:09:05;4.18;;;2.55;;
11066;SDS011;29763;50.904;5.530;2022-09-03T06:11:35;4.03;;;2.03;;
11066;SDS011;29763;50.904;5.530;2022-09-03T06:14:06;2.65;;;1.80;;
11066;SDS011;29763;50.904;5.530;2022-09-03T06:16:37;3.22;;;2.00;;
11066;SDS011;29763;50.904;5.530;2022-09-03T06:19:05;3.63;;;1.90;;
11066;SDS011;29763;50.904;5.530;2022-09-03T06:21:34;4.03;;;2.28;;
11066;SDS011;29763;50.904;5.530;2022-09-03T06:24:10;3.42;;;1.70;;
11066;SDS011;29763;50.904;5.530;2022-09-03T06:26:39;4.35;;;2.00;;
11066;SDS011;29763;50.904;5.530;2022-09-03T06:29:06;4.43;;;2.10;;
11066;SDS011;29763;50.904;5.530;2022-09-03T06:31:32;4.63;;;2.10;;
11066;SDS011;29763;50.904;5.530;2022-09-03T06:34:00;3.35;;;1.70;;
11066;SDS011;29763;50.904;5.530;2022-09-03T06:36:27;3.70;;;1.80;;
11066;SDS011;29763;50.904;5.530;2022-09-03T06:38:54;2.00;;;1.80;;
11066;SDS011;29763;50.904;5.530;2022-09-03T06:41:24;3.58;;;2.33;;
11066;SDS011;29763;50.904;5.530;2022-09-03T06:43:53;3.58;;;2.00;;
11066;SDS011;29763;50.904;5.530;2022-09-03T06:46:36;4.43;;;2.10;;
11066;SDS011;29763;50.904;5.530;2022-09-03T06:49:03;2.05;;;1.92;;
11066;SDS011;29763;50.904;5.530;2022-09-03T06:51:38;2.75;;;1.98;;
11066;SDS011;29763;50.904;5.530;2022-09-03T06:56:39;3.13;;;1.98;;
11066;SDS011;29763;50.904;5.530;2022-09-03T06:59:12;3.10;;;2.05;;
11066;SDS011;29763;50.904;5.530;2022-09-03T07:01:41;3.35;;;2.10;;
11066;SDS011;29763;50.904;5.530;2022-09-03T07:07:34;3.50;;;2.15;;
11066;SDS011;29763;50.904;5.530;2022-09-03T07:10:50;6.82;;;2.20;;
11066;SDS011;29763;50.904;5.530;2022-09-03T07:23:20;4.25;;;1.98;;
11066;SDS011;29763;50.904;5.530;2022-09-03T07:29:47;3.97;;;2.50;;
11066;SDS011;29763;50.904;5.530;2022-09-03T07:32:13;3.83;;;2.00;;
11066;SDS011;29763;50.904;5.530;2022-09-03T07:34:38;5.97;;;2.08;;
11066;SDS011;29763;50.904;5.530;2022-09-03T07:37:04;4.70;;;2.30;;
11066;SDS011;29763;50.904;5.530;2022-09-03T07:39:31;2.90;;;2.20;;
11066;SDS011;29763;50.904;5.530;2022-09-03T07:41:57;3.78;;;2.03;;
11066;SDS011;29763;50.904;5.530;2022-09-03T07:44:24;3.00;;;1.92;;
11066;SDS011;29763;50.904;5.530;2022-09-03T07:46:50;3.78;;;2.00;;
11066;SDS011;29763;50.904;5.530;2022-09-03T07:49:16;4.88;;;2.20;;
11066;SDS011;29763;50.904;5.530;2022-09-03T07:51:45;3.10;;;2.08;;
11066;SDS011;29763;50.904;5.530;2022-09-03T07:54:14;2.83;;;2.00;;
11066;SDS011;29763;50.904;5.530;2022-09-03T07:56:40;4.22;;;2.13;;
11066;SDS011;29763;50.904;5.530;2022-09-03T07:59:06;2.30;;;1.95;;
11066;SDS011;29763;50.904;5.530;2022-09-03T08:01:33;6.25;;;2.42;;
11066;SDS011;29763;50.904;5.530;2022-09-03T08:04:00;5.05;;;2.47;;
11066;SDS011;29763;50.904;5.530;2022-09-03T08:06:28;3.22;;;2.22;;
11066;SDS011;29763;50.904;5.530;2022-09-03T08:12:30;2.17;;;2.03;;
11066;SDS011;29763;50.904;5.530;2022-09-03T08:22:03;4.20;;;2.05;;
11066;SDS011;29763;50.904;5.530;2022-09-03T08:24:29;3.17;;;2.20;;
11066;SDS011;29763;50.904;5.530;2022-09-03T08:26:55;3.42;;;2.28;;
11066;SDS011;29763;50.904;5.530;2022-09-03T08:29:20;2.72;;;2.00;;
11066;SDS011;29763;50.904;5.530;2022-09-03T08:31:47;2.92;;;2.03;;
11066;SDS011;29763;50.904;5.530;2022-09-03T08:34:13;3.90;;;2.50;;
11066;SDS011;29763;50.904;5.530;2022-09-03T08:36:41;2.70;;;2.50;;
11066;SDS011;29763;50.904;5.530;2022-09-03T08:39:07;2.50;;;2.30;;
11066;SDS011;29763;50.904;5.530;2022-09-03T08:47:19;3.17;;;2.50;;
11066;SDS011;29763;50.904;5.530;2022-09-03T08:54:58;3.85;;;2.47;;
11066;SDS011;29763;50.904;5.530;2022-09-03T08:57:40;4.35;;;2.58;;
11066;SDS011;29763;50.904;5.530;2022-09-03T09:00:12;3.65;;;2.38;;
11066;SDS011;29763;50.904;5.530;2022-09-03T09:02:45;2.72;;;2.40;;
11066;SDS011;29763;50.904;5.530;2022-09-03T09:08:16;4.25;;;2.58;;
11066;SDS011;29763;50.904;5.530;2022-09-03T09:11:19;5.35;;;2.60;;
11066;SDS011;29763;50.904;5.530;2022-09-03T09:13:57;4.35;;;2.40;;
11066;SDS011;29763;50.904;5.530;2022-09-03T09:19:12;7.43;;;2.50;;
11066;SDS011;29763;50.904;5.530;2022-09-03T09:21:55;5.20;;;2.60;;
11066;SDS011;29763;50.904;5.530;2022-09-03T09:24:27;5.10;;;2.90;;
11066;SDS011;29763;50.904;5.530;2022-09-03T09:27:17;2.50;;;2.30;;
11066;SDS011;29763;50.904;5.530;2022-09-03T09:29:47;4.90;;;2.50;;
11066;SDS011;29763;50.904;5.530;2022-09-03T09:32:15;3.72;;;2.28;;
11066;SDS011;29763;50.904;5.530;2022-09-03T09:34:43;2.58;;;2.20;;
11066;SDS011;29763;50.904;5.530;2022-09-03T09:37:11;3.83;;;2.50;;
11066;SDS011;29763;50.904;5.530;2022-09-03T09:39:39;4.53;;;2.60;;
11066;SDS011;29763;50.904;5.530;2022-09-03T09:42:10;3.60;;;2.50;;
11066;SDS011;29763;50.904;5.530;2022-09-03T09:44:37;3.17;;;2.60;;
11066;SDS011;29763;50.904;5.530;2022-09-03T09:47:06;3.70;;;2.42;;
11066;SDS011;29763;50.904;5.530;2022-09-03T09:52:11;3.80;;;2.60;;
11066;SDS011;29763;50.904;5.530;2022-09-03T09:54:40;4.07;;;2.42;;
11066;SDS011;29763;50.904;5.530;2022-09-03T09:57:13;2.75;;;2.45;;
11066;SDS011;29763;50.904;5.530;2022-09-03T09:59:43;3.20;;;2.90;;
11066;SDS011;29763;50.904;5.530;2022-09-03T10:02:19;3.10;;;2.80;;
11066;SDS011;29763;50.904;5.530;2022-09-03T10:04:52;3.53;;;2.85;;
11066;SDS011;29763;50.904;5.530;2022-09-03T10:07:28;3.33;;;3.00;;
11066;SDS011;29763;50.904;5.530;2022-09-03T10:10:01;5.60;;;3.03;;
11066;SDS011;29763;50.904;5.530;2022-09-03T10:12:41;6.13;;;3.00;;
11066;SDS011;29763;50.904;5.530;2022-09-03T10:26:51;3.50;;;2.97;;
11066;SDS011;29763;50.904;5.530;2022-09-03T10:29:22;4.18;;;2.80;;
11066;SDS011;29763;50.904;5.530;2022-09-03T10:31:57;2.88;;;2.55;;
11066;SDS011;29763;50.904;5.530;2022-09-03T10:34:53;3.03;;;2.60;;
11066;SDS011;29763;50.904;5.530;2022-09-03T10:37:43;4.65;;;2.83;;
11066;SDS011;29763;50.904;5.530;2022-09-03T10:43:37;2.83;;;2.50;;
11066;SDS011;29763;50.904;5.530;2022-09-03T10:46:10;4.00;;;2.83;;
11066;SDS011;29763;50.904;5.530;2022-09-03T10:51:27;2.85;;;2.65;;
11066;SDS011;29763;50.904;5.530;2022-09-03T11:02:09;7.82;;;3.20;;
11066;SDS011;29763;50.904;5.530;2022-09-03T11:05:05;5.72;;;3.10;;
11066;SDS011;29763;50.904;5.530;2022-09-03T11:07:43;3.90;;;2.75;;
11066;SDS011;29763;50.904;5.530;2022-09-03T11:10:26;3.42;;;3.13;;
11066;SDS011;29763;50.904;5.530;2022-09-03T11:15:23;3.30;;;3.00;;
11066;SDS011;29763;50.904;5.530;2022-09-03T11:17:57;3.33;;;3.03;;
11066;SDS011;29763;50.904;5.530;2022-09-03T11:20:33;6.95;;;2.80;;
11066;SDS011;29763;50.904;5.530;2022-09-03T11:23:00;3.63;;;2.60;;
11066;SDS011;29763;50.904;5.530;2022-09-03T11:25:30;3.38;;;3.10;;
11066;SDS011;29763;50.904;5.530;2022-09-03T11:28:18;3.15;;;2.88;;
11066;SDS011;29763;50.904;5.530;2022-09-03T11:33:58;4.65;;;2.92;;
11066;SDS011;29763;50.904;5.530;2022-09-03T11:36:33;4.30;;;3.10;;
11066;SDS011;29763;50.904;5.530;2022-09-03T11:41:57;3.45;;;2.80;;
11066;SDS011;29763;50.904;5.530;2022-09-03T11:44:37;3.45;;;3.15;;
11066;SDS011;29763;50.904;5.530;2022-09-03T11:47:13;3.47;;;3.10;;
11066;SDS011;29763;50.904;5.530;2022-09-03T11:49:50;5.03;;;2.85;;
11066;SDS011;29763;50.904;5.530;2022-09-03T11:52:24;3.13;;;2.83;;
11066;SDS011;29763;50.904;5.530;2022-09-03T11:54:52;3.35;;;3.05;;
11066;SDS011;29763;50.904;5.530;2022-09-03T11:57:28;3.10;;;2.80;;
11066;SDS011;29763;50.904;5.530;2022-09-03T12:00:12;3.03;;;2.83;;
11066;SDS011;29763;50.904;5.530;2022-09-03T12:05:39;6.05;;;3.00;;
11066;SDS011;29763;50.904;5.530;2022-09-03T12:08:30;2.90;;;2.70;;
11066;SDS011;29763;50.904;5.530;2022-09-03T12:11:40;3.92;;;2.75;;
11066;SDS011;29763;50.904;5.530;2022-09-03T12:14:19;2.90;;;2.65;;
11066;SDS011;29763;50.904;5.530;2022-09-03T12:22:34;3.65;;;2.88;;
11066;SDS011;29763;50.904;5.530;2022-09-03T12:25:12;4.10;;;2.80;;
11066;SDS011;29763;50.904;5.530;2022-09-03T12:27:40;4.05;;;3.15;;
11066;SDS011;29763;50.904;5.530;2022-09-03T12:30:17;3.20;;;2.90;;
11066;SDS011;29763;50.904;5.530;2022-09-03T12:32:47;4.18;;;3.17;;
11066;SDS011;29763;50.904;5.530;2022-09-03T12:35:16;6.20;;;3.20;;
11066;SDS011;29763;50.904;5.530;2022-09-03T12:37:47;4.22;;;3.08;;
11066;SDS011;29763;50.904;5.530;2022-09-03T12:40:21;3.28;;;2.92;;
11066;SDS011;29763;50.904;5.530;2022-09-03T12:42:50;3.88;;;3.20;;
11066;SDS011;29763;50.904;5.530;2022-09-03T12:45:20;3.50;;;3.20;;
11066;SDS011;29763;50.904;5.530;2022-09-03T12:47:48;3.72;;;3.20;;
11066;SDS011;29763;50.904;5.530;2022-09-03T12:50:18;4.25;;;3.17;;
11066;SDS011;29763;50.904;5.530;2022-09-03T12:52:55;7.95;;;3.40;;
11066;SDS011;29763;50.904;5.530;2022-09-03T12:55:28;5.13;;;3.15;;
11066;SDS011;29763;50.904;5.530;2022-09-03T13:00:42;3.70;;;3.13;;
11066;SDS011;29763;50.904;5.530;2022-09-03T13:03:49;5.82;;;3.20;;
11066;SDS011;29763;50.904;5.530;2022-09-03T13:06:25;4.30;;;3.45;;
11066;SDS011;29763;50.904;5.530;2022-09-03T13:09:07;4.32;;;3.50;;
11066;SDS011;29763;50.904;5.530;2022-09-03T13:11:38;7.15;;;3.75;;
11066;SDS011;29763;50.904;5.530;2022-09-03T13:14:07;4.05;;;3.00;;
11066;SDS011;29763;50.904;5.530;2022-09-03T13:30:50;4.88;;;3.47;;
11066;SDS011;29763;50.904;5.530;2022-09-03T13:33:31;5.82;;;3.17;;
11066;SDS011;29763;50.904;5.530;2022-09-03T13:39:01;4.20;;;3.47;;
11066;SDS011;29763;50.904;5.530;2022-09-03T13:41:46;5.03;;;3.47;;
11066;SDS011;29763;50.904;5.530;2022-09-03T13:47:55;3.42;;;3.22;;
11066;SDS011;29763;50.904;5.530;2022-09-03T13:50:43;3.17;;;2.95;;
11066;SDS011;29763;50.904;5.530;2022-09-03T13:53:30;5.68;;;3.08;;
11066;SDS011;29763;50.904;5.530;2022-09-03T13:56:28;3.42;;;3.05;;
11066;SDS011;29763;50.904;5.530;2022-09-03T13:59:16;3.05;;;2.80;;
11066;SDS011;29763;50.904;5.530;2022-09-03T14:10:22;3.03;;;2.83;;
11066;SDS011;29763;50.904;5.530;2022-09-03T14:16:03;4.13;;;2.80;;
11066;SDS011;29763;50.904;5.530;2022-09-03T14:21:30;2.85;;;2.58;;
11066;SDS011;29763;50.904;5.530;2022-09-03T14:24:23;3.42;;;3.00;;
11066;SDS011;29763;50.904;5.530;2022-09-03T14:27:02;2.83;;;2.63;;
11066;SDS011;29763;50.904;5.530;2022-09-03T14:29:30;3.38;;;2.72;;
11066;SDS011;29763;50.904;5.530;2022-09-03T14:40:14;3.33;;;2.90;;
11066;SDS011;29763;50.904;5.530;2022-09-03T14:42:46;4.15;;;2.80;;
11066;SDS011;29763;50.904;5.530;2022-09-03T14:48:28;2.60;;;2.42;;
11066;SDS011;29763;50.904;5.530;2022-09-03T15:00:04;2.60;;;2.40;;
11066;SDS011;29763;50.904;5.530;2022-09-03T15:12:02;2.90;;;2.70;;
11066;SDS011;29763;50.904;5.530;2022-09-03T15:14:13;2.90;;;2.70;;
11066;SDS011;29763;50.904;5.530;2022-09-03T15:16:47;3.28;;;2.90;;
11066;SDS011;29763;50.904;5.530;2022-09-03T15:19:59;3.28;;;2.88;;
11066;SDS011;29763;50.904;5.530;2022-09-03T15:31:35;5.55;;;2.78;;
11066;SDS011;29763;50.904;5.530;2022-09-03T15:37:01;3.72;;;2.80;;
11066;SDS011;29763;50.904;5.530;2022-09-03T15:39:37;2.63;;;2.40;;
11066;SDS011;29763;50.904;5.530;2022-09-03T15:42:20;2.75;;;2.55;;
11066;SDS011;29763;50.904;5.530;2022-09-03T15:44:51;3.10;;;2.80;;
11066;SDS011;29763;50.904;5.530;2022-09-03T15:53:05;7.32;;;3.20;;
11066;SDS011;29763;50.904;5.530;2022-09-03T15:55:49;4.57;;;3.22;;
11066;SDS011;29763;50.904;5.530;2022-09-03T15:58:36;3.42;;;2.80;;
11066;SDS011;29763;50.904;5.530;2022-09-03T16:06:48;3.80;;;3.30;;
11066;SDS011;29763;50.904;5.530;2022-09-03T16:15:03;5.13;;;3.20;;
11066;SDS011;29763;50.904;5.530;2022-09-03T16:18:43;3.53;;;3.05;;
11066;SDS011;29763;50.904;5.530;2022-09-03T16:20:45;5.53;;;3.40;;
11066;SDS011;29763;50.904;5.530;2022-09-03T16:23:25;4.20;;;3.03;;
11066;SDS011;29763;50.904;5.530;2022-09-03T16:29:15;3.85;;;3.15;;
11066;SDS011;29763;50.904;5.530;2022-09-03T16:39:46;3.75;;;2.95;;
11066;SDS011;29763;50.904;5.530;2022-09-03T16:55:53;5.57;;;3.40;;
11066;SDS011;29763;50.904;5.530;2022-09-03T17:07:07;6.75;;;3.65;;
11066;SDS011;29763;50.904;5.530;2022-09-03T17:17:55;3.00;;;2.80;;
11066;SDS011;29763;50.904;5.530;2022-09-03T17:20:29;2.92;;;2.72;;
11066;SDS011;29763;50.904;5.530;2022-09-03T17:36:55;3.45;;;2.80;;
11066;SDS011;29763;50.904;5.530;2022-09-03T17:42:20;3.08;;;2.88;;
11066;SDS011;29763;50.904;5.530;2022-09-03T17:55:40;3.50;;;3.20;;
11066;SDS011;29763;50.904;5.530;2022-09-03T18:01:22;3.30;;;3.00;;
11066;SDS011;29763;50.904;5.530;2022-09-03T18:03:59;3.65;;;3.33;;
11066;SDS011;29763;50.904;5.530;2022-09-03T18:06:54;3.60;;;3.40;;
11066;SDS011;29763;50.904;5.530;2022-09-03T18:09:27;3.75;;;3.45;;
11066;SDS011;29763;50.904;5.530;2022-09-03T18:12:08;3.72;;;3.42;;
11066;SDS011;29763;50.904;5.530;2022-09-03T18:20:09;4.40;;;2.92;;
11066;SDS011;29763;50.904;5.530;2022-09-03T18:25:53;3.75;;;3.20;;
11066;SDS011;29763;50.904;5.530;2022-09-03T18:28:56;3.47;;;3.17;;
11066;SDS011;29763;50.904;5.530;2022-09-03T18:31:47;3.42;;;3.13;;
11066;SDS011;29763;50.904;5.530;2022-09-03T18:34:33;3.40;;;3.00;;
11066;SDS011;29763;50.904;5.530;2022-09-03T18:37:22;3.38;;;3.17;;
11066;SDS011;29763;50.904;5.530;2022-09-03T18:40:09;4.05;;;3.22;;
11066;SDS011;29763;50.904;5.530;2022-09-03T18:46:08;3.55;;;3.25;;
11066;SDS011;29763;50.904;5.530;2022-09-03T19:01:14;4.30;;;3.90;;
11066;SDS011;29763;50.904;5.530;2022-09-03T19:14:22;4.07;;;3.78;;
11066;SDS011;29763;50.904;5.530;2022-09-03T19:24:02;3.97;;;3.67;;
11066;SDS011;29763;50.904;5.530;2022-09-03T19:32:43;4.00;;;3.60;;
11066;SDS011;29763;50.904;5.530;2022-09-03T19:36:15;6.05;;;4.20;;
11066;SDS011;29763;50.904;5.530;2022-09-03T19:52:08;4.50;;;4.07;;
11066;SDS011;29763;50.904;5.530;2022-09-03T19:55:01;4.57;;;4.18;;
11066;SDS011;29763;50.904;5.530;2022-09-03T19:57:46;4.63;;;4.18;;
11066;SDS011;29763;50.904;5.530;2022-09-03T20:00:35;4.60;;;4.20;;
11066;SDS011;29763;50.904;5.530;2022-09-03T20:03:19;4.70;;;4.00;;
11066;SDS011;29763;50.904;5.530;2022-09-03T20:06:04;4.20;;;3.83;;
11066;SDS011;29763;50.904;5.530;2022-09-03T20:08:53;4.30;;;3.90;;
11066;SDS011;29763;50.904;5.530;2022-09-03T20:11:48;3.97;;;3.65;;
11066;SDS011;29763;50.904;5.530;2022-09-03T20:14:14;4.22;;;3.92;;
11066;SDS011;29763;50.904;5.530;2022-09-03T20:19:32;4.50;;;4.20;;
11066;SDS011;29763;50.904;5.530;2022-09-03T20:30:46;4.38;;;3.97;;
11066;SDS011;29763;50.904;5.530;2022-09-03T20:36:12;4.32;;;3.90;;
11066;SDS011;29763;50.904;5.530;2022-09-03T20:47:58;5.38;;;4.10;;
11066;SDS011;29763;50.904;5.530;2022-09-03T20:56:44;5.22;;;4.32;;
11066;SDS011;29763;50.904;5.530;2022-09-03T20:59:28;5.05;;;4.07;;
11066;SDS011;29763;50.904;5.530;2022-09-03T21:02:20;4.35;;;3.95;;
11066;SDS011;29763;50.904;5.530;2022-09-03T21:13:34;4.78;;;4.05;;
11066;SDS011;29763;50.904;5.530;2022-09-03T21:16:33;3.75;;;3.42;;
11066;SDS011;29763;50.904;5.530;2022-09-03T21:25:04;4.90;;;3.95;;
11066;SDS011;29763;50.904;5.530;2022-09-03T21:27:38;3.90;;;3.55;;
11066;SDS011;29763;50.904;5.530;2022-09-03T21:30:14;4.47;;;4.07;;
11066;SDS011;29763;50.904;5.530;2022-09-03T21:35:35;3.70;;;3.40;;
11066;SDS011;29763;50.904;5.530;2022-09-03T21:38:08;4.78;;;4.03;;
11066;SDS011;29763;50.904;5.530;2022-09-03T21:41:22;4.07;;;3.78;;
11066;SDS011;29763;50.904;5.530;2022-09-03T21:46:08;4.15;;;3.85;;
11066;SDS011;29763;50.904;5.530;2022-09-03T21:48:55;4.68;;;3.90;;
11066;SDS011;29763;50.904;5.530;2022-09-03T21:51:32;4.65;;;3.85;;
11066;SDS011;29763;50.904;5.530;2022-09-03T21:54:05;4.13;;;3.83;;
11066;SDS011;29763;50.904;5.530;2022-09-03T22:04:29;4.95;;;3.80;;
11066;SDS011;29763;50.904;5.530;2022-09-03T22:06:59;4.72;;;4.03;;
11066;SDS011;29763;50.904;5.530;2022-09-03T22:12:26;4.32;;;4.00;;
11066;SDS011;29763;50.904;5.530;2022-09-03T22:15:00;3.67;;;3.30;;
11066;SDS011;29763;50.904;5.530;2022-09-03T22:17:34;4.97;;;4.38;;
11066;SDS011;29763;50.904;5.530;2022-09-03T22:20:08;4.75;;;4.35;;
11066;SDS011;29763;50.904;5.530;2022-09-03T22:22:50;4.07;;;3.58;;
11066;SDS011;29763;50.904;5.530;2022-09-03T22:36:17;4.45;;;4.05;;
11066;SDS011;29763;50.904;5.530;2022-09-03T22:41:30;5.55;;;4.20;;
11066;SDS011;29763;50.904;5.530;2022-09-03T22:46:50;4.25;;;3.85;;
11066;SDS011;29763;50.904;5.530;2022-09-03T22:49:44;4.40;;;4.10;;
11066;SDS011;29763;50.904;5.530;2022-09-03T22:52:33;4.35;;;3.95;;
11066;SDS011;29763;50.904;5.530;2022-09-03T22:55:24;4.20;;;3.90;;
11066;SDS011;29763;50.904;5.530;2022-09-03T23:00:29;4.43;;;4.03;;
11066;SDS011;29763;50.904;5.530;2022-09-03T23:03:06;4.38;;;4.00;;
11066;SDS011;29763;50.904;5.530;2022-09-03T23:05:40;4.35;;;4.05;;
11066;SDS011;29763;50.904;5.530;2022-09-03T23:08:23;3.90;;;3.60;;
11066;SDS011;29763;50.904;5.530;2022-09-03T23:10:58;4.45;;;3.65;;
11066;SDS011;29763;50.904;5.530;2022-09-03T23:13:37;4.45;;;4.05;;
11066;SDS011;29763;50.904;5.530;2022-09-03T23:18:55;4.65;;;3.72;;
11066;SDS011;29763;50.904;5.530;2022-09-03T23:21:27;3.80;;;3.50;;
11066;SDS011;29763;50.904;5.530;2022-09-03T23:24:09;4.38;;;4.00;;
11066;SDS011;29763;50.904;5.530;2022-09-03T23:26:41;4.00;;;3.70;;
11066;SDS011;29763;50.904;5.530;2022-09-03T23:31:36;4.85;;;4.03;;
11066;SDS011;29763;50.904;5.530;2022-09-03T23:34:02;4.00;;;3.70;;